Blue Vision — MRNB — position and weather

sailwx.info

Track history (hours):
 
Tides and Currents Weather Stations Pressure Air Temp Water Temp Dewpoint Dewpoint Depression Visibility Wind Speed Wind Dir Waves Ship Positions

Blue Vision

Last reported at 2014-Aug-21 00:30 UTC. Time now 2014-Aug-21 10:10 UTC.
Position N 39°06' E 001°30'.

Length 45 m; draft 3 m.

Type: Pleasure craft. MMSI: 235054475.

Date/timePositionNaut miles runAvg speedWind from/ knotsBaromVisibWave heightAir tempDewpointWater temp
2014-Aug-21 00:30N 39°06' E 001°30'0 0.0
2014-Aug-20 21:12N 39°06' E 001°30'4 1.6
2014-Aug-20 18:32N 39°06' E 001°36'4 4.0
2014-Aug-20 17:33N 39°02' E 001°37'0 0.0
2014-Aug-20 16:33N 39°02' E 001°37'0 0.0
2014-Aug-20 15:33N 39°02' E 001°37'0 0.0
2014-Aug-20 14:32N 39°02' E 001°37'0 0.0
2014-Aug-20 13:33N 39°02' E 001°37'4 3.8
2014-Aug-20 12:32N 38°59' E 001°34'0 0.2
2014-Aug-20 11:33N 38°59' E 001°34'7 7.0
2014-Aug-20 10:32N 38°54' E 001°28'4 0.2
2014-Aug-19 17:31N 38°51' E 001°26'  
2014-Aug-15 10:22N 39°34' E 002°38'0 0.0
2014-Aug-15 07:08N 39°34' E 002°38'0 0.0
2014-Aug-15 06:29N 39°34' E 002°38'0 0.0
2014-Aug-15 05:21N 39°34' E 002°38'0 0.0
2014-Aug-14 21:28N 39°34' E 002°38'0 0.0
2014-Aug-14 11:33N 39°34' E 002°38'0 0.0
2014-Aug-14 10:33N 39°34' E 002°38'0 0.0
2014-Aug-14 09:33N 39°34' E 002°38'0 0.0
2014-Aug-14 08:33N 39°34' E 002°38'0 0.0
2014-Aug-14 07:33N 39°34' E 002°38'0 0.0
2014-Aug-14 06:33N 39°34' E 002°38'0 0.0
2014-Aug-14 05:33N 39°34' E 002°38'0 0.0
2014-Aug-14 04:33N 39°34' E 002°38'0 0.0
2014-Aug-14 03:33N 39°34' E 002°38'0 0.0
2014-Aug-14 02:33N 39°34' E 002°38'0 0.0
2014-Aug-14 01:33N 39°34' E 002°38'0 0.0
2014-Aug-14 00:33N 39°34' E 002°38'0 0.0
2014-Aug-13 23:33N 39°34' E 002°38'0 0.0
2014-Aug-13 22:33N 39°34' E 002°38'0 0.0
2014-Aug-13 21:33N 39°34' E 002°38'0 0.0
2014-Aug-13 20:33N 39°34' E 002°38'0 0.0
2014-Aug-13 19:33N 39°34' E 002°38'0 0.0
2014-Aug-13 18:33N 39°34' E 002°38'0 0.0
2014-Aug-13 17:33N 39°34' E 002°38'0 0.0
2014-Aug-13 16:33N 39°34' E 002°38'0 0.0
2014-Aug-13 15:33N 39°34' E 002°38'0 0.0
2014-Aug-13 14:33N 39°34' E 002°38'0 0.0
2014-Aug-13 13:33N 39°34' E 002°38'0 0.0
2014-Aug-13 12:33N 39°34' E 002°38'0 0.0
2014-Aug-13 11:33N 39°34' E 002°38'0 0.0
2014-Aug-13 10:33N 39°34' E 002°38'0 0.0
2014-Aug-13 09:33N 39°34' E 002°38'0 0.0
2014-Aug-13 08:33N 39°34' E 002°38'0 0.0
2014-Aug-13 07:27N 39°34' E 002°38'0 0.0
2014-Aug-13 05:31N 39°34' E 002°38'0 0.0
2014-Aug-13 04:31N 39°34' E 002°38'0 0.0
2014-Aug-13 03:29N 39°34' E 002°38'0 0.0
2014-Aug-13 02:33N 39°34' E 002°38'0 0.0
2014-Aug-13 01:33N 39°34' E 002°38'0 0.0
2014-Aug-13 00:33N 39°34' E 002°38'0 0.0
2014-Aug-12 23:30N 39°34' E 002°38'0 0.0
2014-Aug-12 22:30N 39°34' E 002°38'0 0.0
2014-Aug-12 21:32N 39°34' E 002°38'0 0.0
2014-Aug-12 20:31N 39°34' E 002°38'0 0.0
2014-Aug-12 19:30N 39°34' E 002°38'0 0.0
2014-Aug-12 18:33N 39°34' E 002°38'0 0.0
2014-Aug-12 17:28N 39°34' E 002°38'0 0.0
2014-Aug-12 15:09N 39°34' E 002°38'0 0.0
2014-Aug-12 14:28N 39°34' E 002°38'0 0.0
2014-Aug-12 13:26N 39°34' E 002°38'0 0.0
2014-Aug-12 08:32N 39°34' E 002°38'0 0.0
2014-Aug-12 07:33N 39°34' E 002°38'0 0.0
2014-Aug-12 06:33N 39°34' E 002°38'0 0.0
2014-Aug-12 05:33N 39°34' E 002°38'0 0.0
2014-Aug-12 04:33N 39°34' E 002°38'0 0.0
2014-Aug-12 03:33N 39°34' E 002°38'0 0.0
2014-Aug-12 02:33N 39°34' E 002°38'0 0.0
2014-Aug-12 01:33N 39°34' E 002°38'0 0.0
2014-Aug-12 00:33N 39°34' E 002°38'0 0.0
2014-Aug-11 23:33N 39°34' E 002°38'0 0.0
2014-Aug-11 22:34N 39°34' E 002°38'0 0.0
2014-Aug-11 21:33N 39°34' E 002°38'0 0.0
2014-Aug-11 20:33N 39°34' E 002°38'0 0.0
2014-Aug-11 19:33N 39°34' E 002°38'0 0.0
2014-Aug-11 18:33N 39°34' E 002°38'6 6.4
2014-Aug-11 17:33N 39°28' E 002°33'2813.9
2014-Aug-11 15:33N 39°12' E 002°04'1413.9
2014-Aug-11 14:33N 39°05' E 001°49'1414.0
2014-Aug-11 13:33N 38°57' E 001°34'12 4.0
2014-Aug-11 10:30N 38°49' E 001°22'  
Track history (hours):
 
Tides and Currents Weather Stations Pressure Air Temp Water Temp Dewpoint Dewpoint Depression Visibility Wind Speed Wind Dir Waves Ship Positions

Blue Vision

Last reported at 2014-Aug-21 00:30 UTC. Time now 2014-Aug-21 10:10 UTC.
Position N 39°06' E 001°30'.

Length 45 m; draft 3 m.

Type: Pleasure craft. MMSI: 235054475.

Date/timePositionNaut miles runAvg speedWind from/ knotsBaromVisibWave heightAir tempDewpointWater temp
2014-Aug-21 00:30N 39°06' E 001°30'0 0.0
2014-Aug-20 21:12N 39°06' E 001°30'4 1.6
2014-Aug-20 18:32N 39°06' E 001°36'4 4.0
2014-Aug-20 17:33N 39°02' E 001°37'0 0.0
2014-Aug-20 16:33N 39°02' E 001°37'0 0.0
2014-Aug-20 15:33N 39°02' E 001°37'0 0.0
2014-Aug-20 14:32N 39°02' E 001°37'0 0.0
2014-Aug-20 13:33N 39°02' E 001°37'4 3.8
2014-Aug-20 12:32N 38°59' E 001°34'0 0.2
2014-Aug-20 11:33N 38°59' E 001°34'7 7.0
2014-Aug-20 10:32N 38°54' E 001°28'4 0.2
2014-Aug-19 17:31N 38°51' E 001°26'  
2014-Aug-15 10:22N 39°34' E 002°38'0 0.0
2014-Aug-15 07:08N 39°34' E 002°38'0 0.0
2014-Aug-15 06:29N 39°34' E 002°38'0 0.0
2014-Aug-15 05:21N 39°34' E 002°38'0 0.0
2014-Aug-14 21:28N 39°34' E 002°38'0 0.0
2014-Aug-14 11:33N 39°34' E 002°38'0 0.0
2014-Aug-14 10:33N 39°34' E 002°38'0 0.0
2014-Aug-14 09:33N 39°34' E 002°38'0 0.0
2014-Aug-14 08:33N 39°34' E 002°38'0 0.0
2014-Aug-14 07:33N 39°34' E 002°38'0 0.0
2014-Aug-14 06:33N 39°34' E 002°38'0 0.0
2014-Aug-14 05:33N 39°34' E 002°38'0 0.0
2014-Aug-14 04:33N 39°34' E 002°38'0 0.0
2014-Aug-14 03:33N 39°34' E 002°38'0 0.0
2014-Aug-14 02:33N 39°34' E 002°38'0 0.0
2014-Aug-14 01:33N 39°34' E 002°38'0 0.0
2014-Aug-14 00:33N 39°34' E 002°38'0 0.0
2014-Aug-13 23:33N 39°34' E 002°38'0 0.0
2014-Aug-13 22:33N 39°34' E 002°38'0 0.0
2014-Aug-13 21:33N 39°34' E 002°38'0 0.0
2014-Aug-13 20:33N 39°34' E 002°38'0 0.0
2014-Aug-13 19:33N 39°34' E 002°38'0 0.0
2014-Aug-13 18:33N 39°34' E 002°38'0 0.0
2014-Aug-13 17:33N 39°34' E 002°38'0 0.0
2014-Aug-13 16:33N 39°34' E 002°38'0 0.0
2014-Aug-13 15:33N 39°34' E 002°38'0 0.0
2014-Aug-13 14:33N 39°34' E 002°38'0 0.0
2014-Aug-13 13:33N 39°34' E 002°38'0 0.0
2014-Aug-13 12:33N 39°34' E 002°38'0 0.0
2014-Aug-13 11:33N 39°34' E 002°38'0 0.0
2014-Aug-13 10:33N 39°34' E 002°38'0 0.0
2014-Aug-13 09:33N 39°34' E 002°38'0 0.0
2014-Aug-13 08:33N 39°34' E 002°38'0 0.0
2014-Aug-13 07:27N 39°34' E 002°38'0 0.0
2014-Aug-13 05:31N 39°34' E 002°38'0 0.0
2014-Aug-13 04:31N 39°34' E 002°38'0 0.0
2014-Aug-13 03:29N 39°34' E 002°38'0 0.0
2014-Aug-13 02:33N 39°34' E 002°38'0 0.0
2014-Aug-13 01:33N 39°34' E 002°38'0 0.0
2014-Aug-13 00:33N 39°34' E 002°38'0 0.0
2014-Aug-12 23:30N 39°34' E 002°38'0 0.0
2014-Aug-12 22:30N 39°34' E 002°38'0 0.0
2014-Aug-12 21:32N 39°34' E 002°38'0 0.0
2014-Aug-12 20:31N 39°34' E 002°38'0 0.0
2014-Aug-12 19:30N 39°34' E 002°38'0 0.0
2014-Aug-12 18:33N 39°34' E 002°38'0 0.0
2014-Aug-12 17:28N 39°34' E 002°38'0 0.0
2014-Aug-12 15:09N 39°34' E 002°38'0 0.0
2014-Aug-12 14:28N 39°34' E 002°38'0 0.0
2014-Aug-12 13:26N 39°34' E 002°38'0 0.0
2014-Aug-12 08:32N 39°34' E 002°38'0 0.0
2014-Aug-12 07:33N 39°34' E 002°38'0 0.0
2014-Aug-12 06:33N 39°34' E 002°38'0 0.0
2014-Aug-12 05:33N 39°34' E 002°38'0 0.0
2014-Aug-12 04:33N 39°34' E 002°38'0 0.0
2014-Aug-12 03:33N 39°34' E 002°38'0 0.0
2014-Aug-12 02:33N 39°34' E 002°38'0 0.0
2014-Aug-12 01:33N 39°34' E 002°38'0 0.0
2014-Aug-12 00:33N 39°34' E 002°38'0 0.0
2014-Aug-11 23:33N 39°34' E 002°38'0 0.0
2014-Aug-11 22:34N 39°34' E 002°38'0 0.0
2014-Aug-11 21:33N 39°34' E 002°38'0 0.0
2014-Aug-11 20:33N 39°34' E 002°38'0 0.0
2014-Aug-11 19:33N 39°34' E 002°38'0 0.0
2014-Aug-11 18:33N 39°34' E 002°38'6 6.4
2014-Aug-11 17:33N 39°28' E 002°33'2813.9
2014-Aug-11 15:33N 39°12' E 002°04'1413.9
2014-Aug-11 14:33N 39°05' E 001°49'1414.0
2014-Aug-11 13:33N 38°57' E 001°34'12 4.0
2014-Aug-11 10:30N 38°49' E 001°22'  

Dump ship's entire track history